Impacts METAR Board INFO
IDs:

KPDX - Portland Intl Arpt, OR, US

Updated at: 2206 UTC 24 Feb 2018
Potential Impact None Slight Moderate High
Time24/10Z 24/11Z 24/12Z 24/13Z 24/14Z 24/15Z 24/16Z 24/17Z 24/18Z 24/19Z 24/20Z 24/21Z 24/22Z
VIS10 10 10 10 10 10 10 10 10 10 10 10 10
CIG39 12 37 20 34 90 -- -- -- 38 40 45 45
CoverOVCOVCOVCBKNBKNBKNSCTSCTSCTBKNBKNBKNBKN
FltCatVFRMVFRVFRMVFRVFRVFRVFRVFRVFRVFRVFRVFRVFR
WX---RA-RA-RA-----------------RA
WDir2102202000260280270270260280270280260
WSpd13 7 8 0 9 9 8 12 10 11 14 14 16
WGst-- -- -- -- -- -- -- -- -- -- -- -- --
Raw hourly METARs
KPDX 240953Z 21013KT 10SM FEW016 SCT029 OVC039 03/01 A3013 RMK AO2 PK WND 21027/0900 RAB03E49 SLP204 P0000 T00330011
KPDX 241053Z 22007KT 10SM -RA BKN012 OVC022 03/01 A3010 RMK AO2 RAB02 SLP191 P0001 T00280011
KPDX 241153Z 20008KT 10SM -RA SCT011 BKN037 OVC047 03/02 A3005 RMK AO2 SLP177 RAE09B26 P0000 60001 70001 T00330017 10039 20028 58027
KPDX 241253Z 00000KT 10SM -RA SCT014 BKN020 BKN060 04/02 A3004 RMK AO2 SLP173 P0000 T00390022
KPDX 241353Z 26009KT 10SM FEW016 SCT028 BKN034 04/02 A3005 RMK AO2 RAE49 SLP176 P0001 T00390022
KPDX 241453Z 28009KT 10SM FEW016 SCT034 BKN090 03/01 A3006 RMK AO2 RAB18E33 SLP179 P0000 60001 T00330011 53002
KPDX 241553Z 27008KT 10SM FEW014 SCT031 SCT090 03/01 A3009 RMK AO2 RAB09E22 SLP189 P0000 T00280011
KPDX 241653Z 27012KT 10SM FEW016 SCT032 SCT070 04/01 A3012 RMK AO2 SLP198 T00440011
KPDX 241753Z 26010KT 10SM FEW022 FEW045 SCT080 06/01 A3013 RMK AO2 SLP204 60001 T00610011 10061 20028 51025
KPDX 241853Z 28011KT 10SM SCT022 BKN038 07/01 A3016 RMK AO2 SLP213 T00720011
KPDX 241953Z 27014KT 10SM FEW026 BKN040 08/02 A3017 RMK AO2 SLP216 T00830017
KPDX 242053Z 28014KT 10SM FEW028 BKN045 BKN060 09/01 A3018 RMK AO2 SLP218 T00890011 51015
KPDX 242153Z 26016KT 10SM -RA FEW030 BKN045 BKN250 09/02 A3019 RMK AO2 RAB49 SLP223 P0000 T00940017